Terminal Aerodrome Forecast
Issued by NWS Tuscon, AZ

Home | Current Version | Previous Version | Text Only | Print | Product List | Glossary On
Versions: 1 2 3 4 5 6 7 8 9 10 11 12 13 14 15 16 17 18
000
FTUS45 KTWC 011129
TAFDUG
TAF
KDUG 011129Z 0112/0212 32006KT P6SM FEW100 BKN180
     FM011800 21007KT P6SM FEW060 BKN200
     FM012000 26010KT P6SM VCTS SCT060CB BKN100
     FM020000 30007KT P6SM SCT060 BKN100
     FM020500 35007KT P6SM SCT100 BKN200=

USA.gov is the U.S. government's official web portal to all federal, state and local government web resources and services.